sensor_id;sensor_type;location;lat;lon;timestamp;P1;durP1;ratioP1;P2;durP2;ratioP2
13584;SDS011;6863;48.402;9.994;2022-07-05T00:00:58;9.07;;;8.25;;
13584;SDS011;6863;48.402;9.994;2022-07-05T00:03:24;9.48;;;8.68;;
13584;SDS011;6863;48.402;9.994;2022-07-05T00:05:50;9.25;;;8.55;;
13584;SDS011;6863;48.402;9.994;2022-07-05T00:08:17;8.95;;;8.15;;
13584;SDS011;6863;48.402;9.994;2022-07-05T00:10:43;9.23;;;8.23;;
13584;SDS011;6863;48.402;9.994;2022-07-05T00:13:08;9.23;;;8.38;;
13584;SDS011;6863;48.402;9.994;2022-07-05T00:15:34;8.65;;;7.93;;
13584;SDS011;6863;48.402;9.994;2022-07-05T00:18:00;12.52;;;8.15;;
13584;SDS011;6863;48.402;9.994;2022-07-05T00:20:26;8.50;;;7.63;;
13584;SDS011;6863;48.402;9.994;2022-07-05T00:22:52;7.63;;;7.03;;
13584;SDS011;6863;48.402;9.994;2022-07-05T00:25:17;8.75;;;8.00;;
13584;SDS011;6863;48.402;9.994;2022-07-05T00:27:43;9.05;;;8.25;;
13584;SDS011;6863;48.402;9.994;2022-07-05T00:30:09;9.77;;;8.75;;
13584;SDS011;6863;48.402;9.994;2022-07-05T00:32:36;8.05;;;7.32;;
13584;SDS011;6863;48.402;9.994;2022-07-05T00:35:02;7.50;;;6.82;;
13584;SDS011;6863;48.402;9.994;2022-07-05T00:37:29;7.63;;;6.85;;
13584;SDS011;6863;48.402;9.994;2022-07-05T00:39:55;9.45;;;6.68;;
13584;SDS011;6863;48.402;9.994;2022-07-05T00:42:21;7.22;;;6.53;;
13584;SDS011;6863;48.402;9.994;2022-07-05T00:44:46;10.38;;;6.45;;
13584;SDS011;6863;48.402;9.994;2022-07-05T00:47:12;6.47;;;5.93;;
13584;SDS011;6863;48.402;9.994;2022-07-05T00:49:38;8.05;;;6.68;;
13584;SDS011;6863;48.402;9.994;2022-07-05T00:52:05;6.97;;;6.38;;
13584;SDS011;6863;48.402;9.994;2022-07-05T00:54:33;5.85;;;5.45;;
13584;SDS011;6863;48.402;9.994;2022-07-05T00:57:01;8.52;;;5.30;;
13584;SDS011;6863;48.402;9.994;2022-07-05T00:59:28;5.97;;;5.38;;
13584;SDS011;6863;48.402;9.994;2022-07-05T01:01:54;6.45;;;5.85;;
13584;SDS011;6863;48.402;9.994;2022-07-05T01:04:19;6.82;;;5.78;;
13584;SDS011;6863;48.402;9.994;2022-07-05T01:06:46;6.35;;;5.38;;
13584;SDS011;6863;48.402;9.994;2022-07-05T01:09:15;5.57;;;5.05;;
13584;SDS011;6863;48.402;9.994;2022-07-05T01:11:43;5.57;;;5.18;;
13584;SDS011;6863;48.402;9.994;2022-07-05T01:14:11;6.30;;;5.70;;
13584;SDS011;6863;48.402;9.994;2022-07-05T01:16:40;6.70;;;5.97;;
13584;SDS011;6863;48.402;9.994;2022-07-05T01:19:06;6.30;;;5.72;;
13584;SDS011;6863;48.402;9.994;2022-07-05T01:21:37;6.32;;;5.85;;
13584;SDS011;6863;48.402;9.994;2022-07-05T01:24:05;7.63;;;6.30;;
13584;SDS011;6863;48.402;9.994;2022-07-05T01:26:41;8.23;;;7.38;;
13584;SDS011;6863;48.402;9.994;2022-07-05T01:29:08;8.05;;;7.32;;
13584;SDS011;6863;48.402;9.994;2022-07-05T01:31:37;8.32;;;7.43;;
13584;SDS011;6863;48.402;9.994;2022-07-05T01:34:04;8.02;;;7.40;;
13584;SDS011;6863;48.402;9.994;2022-07-05T01:36:31;8.43;;;7.53;;
13584;SDS011;6863;48.402;9.994;2022-07-05T01:38:57;10.20;;;9.32;;
13584;SDS011;6863;48.402;9.994;2022-07-05T01:41:23;9.63;;;8.80;;
13584;SDS011;6863;48.402;9.994;2022-07-05T01:43:49;10.55;;;9.65;;
13584;SDS011;6863;48.402;9.994;2022-07-05T01:46:15;10.80;;;9.65;;
13584;SDS011;6863;48.402;9.994;2022-07-05T01:48:43;10.03;;;9.23;;
13584;SDS011;6863;48.402;9.994;2022-07-05T01:51:13;10.53;;;9.27;;
13584;SDS011;6863;48.402;9.994;2022-07-05T01:53:46;10.17;;;9.17;;
13584;SDS011;6863;48.402;9.994;2022-07-05T01:56:14;9.97;;;9.10;;
13584;SDS011;6863;48.402;9.994;2022-07-05T01:58:40;9.67;;;8.90;;
13584;SDS011;6863;48.402;9.994;2022-07-05T02:01:07;9.13;;;8.27;;
13584;SDS011;6863;48.402;9.994;2022-07-05T02:03:33;9.90;;;9.13;;
13584;SDS011;6863;48.402;9.994;2022-07-05T02:05:59;9.77;;;8.87;;
13584;SDS011;6863;48.402;9.994;2022-07-05T02:08:28;10.83;;;8.60;;
13584;SDS011;6863;48.402;9.994;2022-07-05T02:10:55;11.93;;;10.13;;
13584;SDS011;6863;48.402;9.994;2022-07-05T02:13:21;13.10;;;9.93;;
13584;SDS011;6863;48.402;9.994;2022-07-05T02:15:47;10.57;;;7.70;;
13584;SDS011;6863;48.402;9.994;2022-07-05T02:18:12;8.43;;;7.83;;
13584;SDS011;6863;48.402;9.994;2022-07-05T02:20:39;8.60;;;7.70;;
13584;SDS011;6863;48.402;9.994;2022-07-05T02:23:05;8.63;;;7.87;;
13584;SDS011;6863;48.402;9.994;2022-07-05T02:25:30;8.77;;;7.95;;
13584;SDS011;6863;48.402;9.994;2022-07-05T02:27:56;8.57;;;7.97;;
13584;SDS011;6863;48.402;9.994;2022-07-05T02:30:22;8.33;;;7.47;;
13584;SDS011;6863;48.402;9.994;2022-07-05T02:32:48;9.07;;;8.23;;
13584;SDS011;6863;48.402;9.994;2022-07-05T02:35:13;9.27;;;8.37;;
13584;SDS011;6863;48.402;9.994;2022-07-05T02:37:39;8.60;;;7.80;;
13584;SDS011;6863;48.402;9.994;2022-07-05T02:40:06;9.90;;;8.30;;
13584;SDS011;6863;48.402;9.994;2022-07-05T02:42:32;9.87;;;8.70;;
13584;SDS011;6863;48.402;9.994;2022-07-05T02:44:58;8.73;;;7.93;;
13584;SDS011;6863;48.402;9.994;2022-07-05T02:47:24;9.20;;;8.30;;
13584;SDS011;6863;48.402;9.994;2022-07-05T02:49:49;9.13;;;8.40;;
13584;SDS011;6863;48.402;9.994;2022-07-05T02:52:16;9.23;;;8.43;;
13584;SDS011;6863;48.402;9.994;2022-07-05T02:54:42;8.50;;;7.70;;
13584;SDS011;6863;48.402;9.994;2022-07-05T02:57:08;8.60;;;7.90;;
13584;SDS011;6863;48.402;9.994;2022-07-05T02:59:33;8.47;;;7.67;;
13584;SDS011;6863;48.402;9.994;2022-07-05T03:01:59;7.87;;;7.17;;
13584;SDS011;6863;48.402;9.994;2022-07-05T03:04:25;7.57;;;7.07;;
13584;SDS011;6863;48.402;9.994;2022-07-05T03:06:50;10.90;;;7.70;;
13584;SDS011;6863;48.402;9.994;2022-07-05T03:09:16;8.60;;;7.80;;
13584;SDS011;6863;48.402;9.994;2022-07-05T03:11:41;9.47;;;8.50;;
13584;SDS011;6863;48.402;9.994;2022-07-05T03:14:07;10.33;;;7.87;;
13584;SDS011;6863;48.402;9.994;2022-07-05T03:16:33;8.20;;;7.40;;
13584;SDS011;6863;48.402;9.994;2022-07-05T03:18:58;7.77;;;7.07;;
13584;SDS011;6863;48.402;9.994;2022-07-05T03:21:24;7.70;;;6.83;;
13584;SDS011;6863;48.402;9.994;2022-07-05T03:23:50;7.80;;;7.10;;
13584;SDS011;6863;48.402;9.994;2022-07-05T03:26:15;7.63;;;6.90;;
13584;SDS011;6863;48.402;9.994;2022-07-05T03:28:41;7.70;;;7.03;;
13584;SDS011;6863;48.402;9.994;2022-07-05T03:31:06;8.00;;;7.33;;
13584;SDS011;6863;48.402;9.994;2022-07-05T03:33:32;9.30;;;8.47;;
13584;SDS011;6863;48.402;9.994;2022-07-05T03:35:58;8.47;;;7.67;;
13584;SDS011;6863;48.402;9.994;2022-07-05T03:38:23;11.23;;;8.20;;
13584;SDS011;6863;48.402;9.994;2022-07-05T03:40:49;8.30;;;7.47;;
13584;SDS011;6863;48.402;9.994;2022-07-05T03:43:15;8.37;;;7.60;;
13584;SDS011;6863;48.402;9.994;2022-07-05T03:45:41;8.43;;;7.83;;
13584;SDS011;6863;48.402;9.994;2022-07-05T03:48:06;8.57;;;7.23;;
13584;SDS011;6863;48.402;9.994;2022-07-05T03:50:32;9.87;;;8.30;;
13584;SDS011;6863;48.402;9.994;2022-07-05T03:52:57;9.10;;;8.30;;
13584;SDS011;6863;48.402;9.994;2022-07-05T03:55:23;8.63;;;8.03;;
13584;SDS011;6863;48.402;9.994;2022-07-05T03:57:49;9.00;;;8.30;;
13584;SDS011;6863;48.402;9.994;2022-07-05T04:00:17;9.53;;;8.83;;
13584;SDS011;6863;48.402;9.994;2022-07-05T04:02:42;8.67;;;7.67;;
13584;SDS011;6863;48.402;9.994;2022-07-05T04:05:08;7.57;;;6.83;;
13584;SDS011;6863;48.402;9.994;2022-07-05T04:07:33;7.03;;;6.43;;
13584;SDS011;6863;48.402;9.994;2022-07-05T04:09:59;7.67;;;6.37;;
13584;SDS011;6863;48.402;9.994;2022-07-05T04:12:25;7.27;;;6.60;;
13584;SDS011;6863;48.402;9.994;2022-07-05T04:14:51;8.53;;;6.43;;
13584;SDS011;6863;48.402;9.994;2022-07-05T04:17:17;7.20;;;6.60;;
13584;SDS011;6863;48.402;9.994;2022-07-05T04:19:42;7.70;;;7.00;;
13584;SDS011;6863;48.402;9.994;2022-07-05T04:22:14;7.83;;;7.13;;
13584;SDS011;6863;48.402;9.994;2022-07-05T04:24:39;6.27;;;5.73;;
13584;SDS011;6863;48.402;9.994;2022-07-05T04:27:24;7.27;;;6.57;;
13584;SDS011;6863;48.402;9.994;2022-07-05T04:29:52;7.00;;;6.27;;
13584;SDS011;6863;48.402;9.994;2022-07-05T04:32:17;6.97;;;6.30;;
13584;SDS011;6863;48.402;9.994;2022-07-05T04:34:43;6.73;;;6.13;;
13584;SDS011;6863;48.402;9.994;2022-07-05T04:37:09;6.43;;;5.93;;
13584;SDS011;6863;48.402;9.994;2022-07-05T04:39:34;6.43;;;5.70;;
13584;SDS011;6863;48.402;9.994;2022-07-05T04:42:00;8.00;;;5.80;;
13584;SDS011;6863;48.402;9.994;2022-07-05T04:44:25;9.00;;;5.63;;
13584;SDS011;6863;48.402;9.994;2022-07-05T04:46:51;5.77;;;5.20;;
13584;SDS011;6863;48.402;9.994;2022-07-05T04:49:16;6.40;;;5.90;;
13584;SDS011;6863;48.402;9.994;2022-07-05T04:51:42;6.23;;;5.63;;
13584;SDS011;6863;48.402;9.994;2022-07-05T04:54:07;6.67;;;5.80;;
13584;SDS011;6863;48.402;9.994;2022-07-05T04:56:33;7.30;;;5.60;;
13584;SDS011;6863;48.402;9.994;2022-07-05T04:58:59;7.27;;;6.20;;
13584;SDS011;6863;48.402;9.994;2022-07-05T05:01:24;10.27;;;6.43;;
13584;SDS011;6863;48.402;9.994;2022-07-05T05:03:50;8.00;;;6.00;;
13584;SDS011;6863;48.402;9.994;2022-07-05T05:06:15;6.60;;;5.93;;
13584;SDS011;6863;48.402;9.994;2022-07-05T05:08:41;5.13;;;4.73;;
13584;SDS011;6863;48.402;9.994;2022-07-05T05:11:07;8.82;;;7.93;;
13584;SDS011;6863;48.402;9.994;2022-07-05T05:13:33;10.02;;;8.00;;
13584;SDS011;6863;48.402;9.994;2022-07-05T05:15:59;6.10;;;5.57;;
13584;SDS011;6863;48.402;9.994;2022-07-05T05:18:25;6.10;;;5.50;;
13584;SDS011;6863;48.402;9.994;2022-07-05T05:20:52;5.90;;;5.40;;
13584;SDS011;6863;48.402;9.994;2022-07-05T05:23:20;5.90;;;5.40;;
13584;SDS011;6863;48.402;9.994;2022-07-05T05:25:46;6.38;;;5.60;;
13584;SDS011;6863;48.402;9.994;2022-07-05T05:28:11;8.25;;;5.93;;
13584;SDS011;6863;48.402;9.994;2022-07-05T05:30:37;6.25;;;5.75;;
13584;SDS011;6863;48.402;9.994;2022-07-05T05:33:03;7.32;;;6.63;;
13584;SDS011;6863;48.402;9.994;2022-07-05T05:35:28;5.00;;;4.60;;
13584;SDS011;6863;48.402;9.994;2022-07-05T05:37:54;5.30;;;4.80;;
13584;SDS011;6863;48.402;9.994;2022-07-05T05:40:21;6.18;;;5.20;;
13584;SDS011;6863;48.402;9.994;2022-07-05T05:42:52;6.93;;;5.78;;
13584;SDS011;6863;48.402;9.994;2022-07-05T05:45:21;6.03;;;5.15;;
13584;SDS011;6863;48.402;9.994;2022-07-05T05:47:57;4.93;;;4.53;;
13584;SDS011;6863;48.402;9.994;2022-07-05T05:50:27;5.40;;;4.95;;
13584;SDS011;6863;48.402;9.994;2022-07-05T05:52:55;5.35;;;4.55;;
13584;SDS011;6863;48.402;9.994;2022-07-05T05:55:21;4.32;;;3.88;;
13584;SDS011;6863;48.402;9.994;2022-07-05T05:57:48;6.40;;;4.55;;
13584;SDS011;6863;48.402;9.994;2022-07-05T06:00:14;4.90;;;4.40;;
13584;SDS011;6863;48.402;9.994;2022-07-05T06:02:41;6.05;;;4.90;;
13584;SDS011;6863;48.402;9.994;2022-07-05T06:05:08;4.68;;;4.25;;
13584;SDS011;6863;48.402;9.994;2022-07-05T06:10:14;4.50;;;4.10;;
13584;SDS011;6863;48.402;9.994;2022-07-05T06:12:50;4.95;;;4.20;;
13584;SDS011;6863;48.402;9.994;2022-07-05T06:15:17;4.88;;;4.20;;
13584;SDS011;6863;48.402;9.994;2022-07-05T06:17:43;5.35;;;4.55;;
13584;SDS011;6863;48.402;9.994;2022-07-05T06:20:11;4.97;;;4.43;;
13584;SDS011;6863;48.402;9.994;2022-07-05T06:22:38;9.20;;;5.43;;
13584;SDS011;6863;48.402;9.994;2022-07-05T06:25:04;6.25;;;5.65;;
13584;SDS011;6863;48.402;9.994;2022-07-05T06:27:30;8.68;;;5.93;;
13584;SDS011;6863;48.402;9.994;2022-07-05T06:29:56;10.70;;;6.28;;
13584;SDS011;6863;48.402;9.994;2022-07-05T06:32:23;8.23;;;6.28;;
13584;SDS011;6863;48.402;9.994;2022-07-05T06:34:48;8.45;;;6.15;;
13584;SDS011;6863;48.402;9.994;2022-07-05T06:37:14;6.32;;;5.68;;
13584;SDS011;6863;48.402;9.994;2022-07-05T06:39:40;8.77;;;6.35;;
13584;SDS011;6863;48.402;9.994;2022-07-05T06:42:06;6.93;;;5.75;;
13584;SDS011;6863;48.402;9.994;2022-07-05T06:44:31;7.65;;;5.25;;
13584;SDS011;6863;48.402;9.994;2022-07-05T06:46:58;6.28;;;5.30;;
13584;SDS011;6863;48.402;9.994;2022-07-05T06:49:24;6.32;;;5.00;;
13584;SDS011;6863;48.402;9.994;2022-07-05T06:51:49;6.65;;;4.80;;
13584;SDS011;6863;48.402;9.994;2022-07-05T06:54:15;5.47;;;4.80;;
13584;SDS011;6863;48.402;9.994;2022-07-05T06:56:41;5.35;;;4.95;;
13584;SDS011;6863;48.402;9.994;2022-07-05T06:59:06;6.75;;;4.68;;
13584;SDS011;6863;48.402;9.994;2022-07-05T07:01:32;6.10;;;4.60;;
13584;SDS011;6863;48.402;9.994;2022-07-05T07:03:57;4.57;;;3.83;;
13584;SDS011;6863;48.402;9.994;2022-07-05T07:06:23;5.63;;;5.07;;
13584;SDS011;6863;48.402;9.994;2022-07-05T07:08:49;5.38;;;4.88;;
13584;SDS011;6863;48.402;9.994;2022-07-05T07:11:33;8.38;;;5.28;;
13584;SDS011;6863;48.402;9.994;2022-07-05T07:13:58;7.22;;;5.40;;
13584;SDS011;6863;48.402;9.994;2022-07-05T07:16:24;5.90;;;5.40;;
13584;SDS011;6863;48.402;9.994;2022-07-05T07:18:50;6.03;;;5.28;;
13584;SDS011;6863;48.402;9.994;2022-07-05T07:21:15;10.25;;;7.50;;
13584;SDS011;6863;48.402;9.994;2022-07-05T07:23:41;7.55;;;6.80;;
13584;SDS011;6863;48.402;9.994;2022-07-05T07:26:06;7.97;;;6.57;;
13584;SDS011;6863;48.402;9.994;2022-07-05T07:28:32;7.90;;;5.93;;
13584;SDS011;6863;48.402;9.994;2022-07-05T07:30:58;9.70;;;6.80;;
13584;SDS011;6863;48.402;9.994;2022-07-05T07:33:23;6.40;;;5.88;;
13584;SDS011;6863;48.402;9.994;2022-07-05T07:35:49;7.43;;;6.22;;
13584;SDS011;6863;48.402;9.994;2022-07-05T07:38:14;5.00;;;4.50;;
13584;SDS011;6863;48.402;9.994;2022-07-05T07:40:40;7.05;;;5.13;;
13584;SDS011;6863;48.402;9.994;2022-07-05T07:43:06;5.82;;;5.22;;
13584;SDS011;6863;48.402;9.994;2022-07-05T07:45:32;5.63;;;4.90;;
13584;SDS011;6863;48.402;9.994;2022-07-05T07:47:57;6.00;;;5.40;;
13584;SDS011;6863;48.402;9.994;2022-07-05T07:50:23;4.40;;;3.97;;
13584;SDS011;6863;48.402;9.994;2022-07-05T07:52:48;5.32;;;3.92;;
13584;SDS011;6863;48.402;9.994;2022-07-05T07:55:14;6.30;;;5.80;;
13584;SDS011;6863;48.402;9.994;2022-07-05T07:57:40;5.53;;;3.65;;
13584;SDS011;6863;48.402;9.994;2022-07-05T08:00:06;4.68;;;3.33;;
13584;SDS011;6863;48.402;9.994;2022-07-05T08:02:32;2.92;;;2.50;;
13584;SDS011;6863;48.402;9.994;2022-07-05T08:04:58;4.10;;;3.10;;
13584;SDS011;6863;48.402;9.994;2022-07-05T08:07:24;3.88;;;2.50;;
13584;SDS011;6863;48.402;9.994;2022-07-05T08:09:50;2.55;;;2.33;;
13584;SDS011;6863;48.402;9.994;2022-07-05T08:12:17;3.88;;;2.50;;
13584;SDS011;6863;48.402;9.994;2022-07-05T08:14:43;2.95;;;2.60;;
13584;SDS011;6863;48.402;9.994;2022-07-05T08:17:09;2.88;;;2.35;;
13584;SDS011;6863;48.402;9.994;2022-07-05T08:19:35;3.85;;;2.50;;
13584;SDS011;6863;48.402;9.994;2022-07-05T08:22:20;2.95;;;2.30;;
13584;SDS011;6863;48.402;9.994;2022-07-05T08:24:45;2.00;;;1.90;;
13584;SDS011;6863;48.402;9.994;2022-07-05T08:27:11;2.20;;;2.00;;
13584;SDS011;6863;48.402;9.994;2022-07-05T08:29:37;2.10;;;2.00;;
13584;SDS011;6863;48.402;9.994;2022-07-05T08:32:03;4.07;;;2.63;;
13584;SDS011;6863;48.402;9.994;2022-07-05T08:34:29;4.07;;;2.72;;
13584;SDS011;6863;48.402;9.994;2022-07-05T08:36:55;3.05;;;2.60;;
13584;SDS011;6863;48.402;9.994;2022-07-05T08:39:21;2.95;;;2.60;;
13584;SDS011;6863;48.402;9.994;2022-07-05T08:41:48;4.57;;;2.13;;
13584;SDS011;6863;48.402;9.994;2022-07-05T08:44:20;2.08;;;1.90;;
13584;SDS011;6863;48.402;9.994;2022-07-05T08:46:47;2.58;;;2.38;;
13584;SDS011;6863;48.402;9.994;2022-07-05T08:49:15;2.47;;;2.35;;
13584;SDS011;6863;48.402;9.994;2022-07-05T08:51:56;4.05;;;2.28;;
13584;SDS011;6863;48.402;9.994;2022-07-05T08:54:22;2.22;;;1.92;;
13584;SDS011;6863;48.402;9.994;2022-07-05T08:56:49;4.85;;;2.15;;
13584;SDS011;6863;48.402;9.994;2022-07-05T08:59:15;4.65;;;2.10;;
13584;SDS011;6863;48.402;9.994;2022-07-05T09:01:41;2.72;;;1.63;;
13584;SDS011;6863;48.402;9.994;2022-07-05T09:04:11;2.78;;;1.90;;
13584;SDS011;6863;48.402;9.994;2022-07-05T09:06:40;2.35;;;1.80;;
13584;SDS011;6863;48.402;9.994;2022-07-05T09:09:07;3.20;;;1.92;;
13584;SDS011;6863;48.402;9.994;2022-07-05T09:11:40;1.80;;;1.70;;
13584;SDS011;6863;48.402;9.994;2022-07-05T09:14:17;2.47;;;2.00;;
13584;SDS011;6863;48.402;9.994;2022-07-05T09:16:43;2.65;;;2.30;;
13584;SDS011;6863;48.402;9.994;2022-07-05T09:19:09;1.95;;;1.85;;
13584;SDS011;6863;48.402;9.994;2022-07-05T09:21:34;2.65;;;1.80;;
13584;SDS011;6863;48.402;9.994;2022-07-05T09:24:04;2.20;;;2.00;;
13584;SDS011;6863;48.402;9.994;2022-07-05T09:26:44;1.92;;;1.80;;
13584;SDS011;6863;48.402;9.994;2022-07-05T09:29:15;2.25;;;2.05;;
13584;SDS011;6863;48.402;9.994;2022-07-05T09:31:43;2.20;;;2.00;;
13584;SDS011;6863;48.402;9.994;2022-07-05T09:34:20;2.60;;;1.88;;
13584;SDS011;6863;48.402;9.994;2022-07-05T09:36:53;2.38;;;1.70;;
13584;SDS011;6863;48.402;9.994;2022-07-05T09:44:55;3.35;;;2.50;;
13584;SDS011;6863;48.402;9.994;2022-07-05T09:47:28;1.73;;;1.63;;
13584;SDS011;6863;48.402;9.994;2022-07-05T09:49:55;2.00;;;1.90;;
13584;SDS011;6863;48.402;9.994;2022-07-05T09:52:26;2.45;;;2.17;;
13584;SDS011;6863;48.402;9.994;2022-07-05T09:55:00;3.50;;;2.30;;
13584;SDS011;6863;48.402;9.994;2022-07-05T09:57:32;3.47;;;2.38;;
13584;SDS011;6863;48.402;9.994;2022-07-05T10:00:10;2.20;;;2.00;;
13584;SDS011;6863;48.402;9.994;2022-07-05T10:02:38;3.08;;;2.33;;
13584;SDS011;6863;48.402;9.994;2022-07-05T10:07:34;2.45;;;2.17;;
13584;SDS011;6863;48.402;9.994;2022-07-05T10:10:01;2.20;;;2.00;;
13584;SDS011;6863;48.402;9.994;2022-07-05T10:12:27;2.90;;;2.60;;
13584;SDS011;6863;48.402;9.994;2022-07-05T10:14:55;5.75;;;1.90;;
13584;SDS011;6863;48.402;9.994;2022-07-05T10:17:24;5.38;;;2.08;;
13584;SDS011;6863;48.402;9.994;2022-07-05T10:19:52;3.63;;;2.00;;
13584;SDS011;6863;48.402;9.994;2022-07-05T10:22:21;2.30;;;2.03;;
13584;SDS011;6863;48.402;9.994;2022-07-05T10:24:47;2.20;;;2.00;;
13584;SDS011;6863;48.402;9.994;2022-07-05T10:27:13;3.15;;;2.47;;
13584;SDS011;6863;48.402;9.994;2022-07-05T10:29:39;1.88;;;1.77;;
13584;SDS011;6863;48.402;9.994;2022-07-05T10:32:07;2.83;;;1.73;;
13584;SDS011;6863;48.402;9.994;2022-07-05T10:34:34;4.90;;;1.90;;
13584;SDS011;6863;48.402;9.994;2022-07-05T10:37:00;2.95;;;1.95;;
13584;SDS011;6863;48.402;9.994;2022-07-05T10:39:26;2.08;;;1.85;;
13584;SDS011;6863;48.402;9.994;2022-07-05T10:41:53;1.95;;;1.70;;
13584;SDS011;6863;48.402;9.994;2022-07-05T10:44:30;2.53;;;1.80;;
13584;SDS011;6863;48.402;9.994;2022-07-05T10:47:07;1.80;;;1.70;;
13584;SDS011;6863;48.402;9.994;2022-07-05T10:49:35;2.33;;;1.80;;
13584;SDS011;6863;48.402;9.994;2022-07-05T10:52:01;1.85;;;1.75;;
13584;SDS011;6863;48.402;9.994;2022-07-05T10:54:26;1.85;;;1.75;;
13584;SDS011;6863;48.402;9.994;2022-07-05T11:00:08;2.60;;;2.40;;
13584;SDS011;6863;48.402;9.994;2022-07-05T11:02:35;2.28;;;1.98;;
13584;SDS011;6863;48.402;9.994;2022-07-05T11:05:02;2.63;;;1.58;;
13584;SDS011;6863;48.402;9.994;2022-07-05T11:10:23;1.88;;;1.77;;
13584;SDS011;6863;48.402;9.994;2022-07-05T11:12:49;2.85;;;2.08;;
13584;SDS011;6863;48.402;9.994;2022-07-05T11:15:14;2.17;;;1.98;;
13584;SDS011;6863;48.402;9.994;2022-07-05T11:17:41;2.83;;;1.92;;
13584;SDS011;6863;48.402;9.994;2022-07-05T11:23:02;2.95;;;1.90;;
13584;SDS011;6863;48.402;9.994;2022-07-05T11:25:29;2.85;;;1.90;;
13584;SDS011;6863;48.402;9.994;2022-07-05T11:33:27;2.47;;;2.20;;
13584;SDS011;6863;48.402;9.994;2022-07-05T11:35:55;3.13;;;2.40;;
13584;SDS011;6863;48.402;9.994;2022-07-05T11:38:22;3.78;;;2.30;;
13584;SDS011;6863;48.402;9.994;2022-07-05T11:40:48;1.98;;;1.88;;
13584;SDS011;6863;48.402;9.994;2022-07-05T11:43:14;2.67;;;2.40;;
13584;SDS011;6863;48.402;9.994;2022-07-05T11:45:39;2.45;;;2.08;;
13584;SDS011;6863;48.402;9.994;2022-07-05T11:48:05;1.90;;;1.80;;
13584;SDS011;6863;48.402;9.994;2022-07-05T11:50:39;6.43;;;2.10;;
13584;SDS011;6863;48.402;9.994;2022-07-05T11:53:08;2.28;;;2.00;;
13584;SDS011;6863;48.402;9.994;2022-07-05T11:55:37;2.17;;;2.08;;
13584;SDS011;6863;48.402;9.994;2022-07-05T11:58:02;1.70;;;1.60;;
13584;SDS011;6863;48.402;9.994;2022-07-05T12:00:32;2.33;;;1.80;;
13584;SDS011;6863;48.402;9.994;2022-07-05T12:03:10;2.63;;;2.08;;
13584;SDS011;6863;48.402;9.994;2022-07-05T12:05:36;2.50;;;1.90;;
13584;SDS011;6863;48.402;9.994;2022-07-05T12:08:02;1.98;;;1.83;;
13584;SDS011;6863;48.402;9.994;2022-07-05T12:10:28;2.70;;;2.50;;
13584;SDS011;6863;48.402;9.994;2022-07-05T12:13:12;2.85;;;2.05;;
13584;SDS011;6863;48.402;9.994;2022-07-05T12:15:38;2.65;;;1.85;;
13584;SDS011;6863;48.402;9.994;2022-07-05T12:18:04;2.13;;;1.90;;
13584;SDS011;6863;48.402;9.994;2022-07-05T12:20:36;2.75;;;2.30;;
13584;SDS011;6863;48.402;9.994;2022-07-05T12:23:03;2.28;;;1.90;;
13584;SDS011;6863;48.402;9.994;2022-07-05T12:25:30;1.98;;;1.83;;
13584;SDS011;6863;48.402;9.994;2022-07-05T12:27:58;3.05;;;1.90;;
13584;SDS011;6863;48.402;9.994;2022-07-05T12:30:27;2.40;;;2.30;;
13584;SDS011;6863;48.402;9.994;2022-07-05T12:35:39;2.10;;;1.90;;
13584;SDS011;6863;48.402;9.994;2022-07-05T12:38:13;1.98;;;1.60;;
13584;SDS011;6863;48.402;9.994;2022-07-05T12:40:59;3.78;;;1.80;;
13584;SDS011;6863;48.402;9.994;2022-07-05T12:43:25;1.92;;;1.80;;
13584;SDS011;6863;48.402;9.994;2022-07-05T12:46:01;2.05;;;1.80;;
13584;SDS011;6863;48.402;9.994;2022-07-05T12:48:31;2.30;;;1.60;;
13584;SDS011;6863;48.402;9.994;2022-07-05T12:51:04;2.92;;;1.83;;
13584;SDS011;6863;48.402;9.994;2022-07-05T12:53:31;2.13;;;1.80;;
13584;SDS011;6863;48.402;9.994;2022-07-05T12:56:16;2.28;;;1.73;;
13584;SDS011;6863;48.402;9.994;2022-07-05T12:59:08;1.85;;;1.75;;
13584;SDS011;6863;48.402;9.994;2022-07-05T13:01:41;3.22;;;1.70;;
13584;SDS011;6863;48.402;9.994;2022-07-05T13:04:11;1.73;;;1.63;;
13584;SDS011;6863;48.402;9.994;2022-07-05T13:09:11;1.33;;;1.33;;
13584;SDS011;6863;48.402;9.994;2022-07-05T13:11:38;1.70;;;1.40;;
13584;SDS011;6863;48.402;9.994;2022-07-05T13:14:03;2.55;;;1.80;;
13584;SDS011;6863;48.402;9.994;2022-07-05T13:16:29;2.17;;;2.00;;
13584;SDS011;6863;48.402;9.994;2022-07-05T13:18:55;2.65;;;1.58;;
13584;SDS011;6863;48.402;9.994;2022-07-05T13:21:32;2.00;;;1.35;;
13584;SDS011;6863;48.402;9.994;2022-07-05T13:23:57;1.73;;;1.63;;
13584;SDS011;6863;48.402;9.994;2022-07-05T13:26:23;1.85;;;1.55;;
13584;SDS011;6863;48.402;9.994;2022-07-05T13:28:48;1.60;;;1.30;;
13584;SDS011;6863;48.402;9.994;2022-07-05T13:31:14;2.22;;;1.88;;
13584;SDS011;6863;48.402;9.994;2022-07-05T13:33:40;2.33;;;1.70;;
13584;SDS011;6863;48.402;9.994;2022-07-05T13:36:05;4.35;;;4.05;;
13584;SDS011;6863;48.402;9.994;2022-07-05T13:38:31;2.60;;;2.47;;
13584;SDS011;6863;48.402;9.994;2022-07-05T13:40:56;1.60;;;1.50;;
13584;SDS011;6863;48.402;9.994;2022-07-05T13:43:22;1.63;;;1.52;;
13584;SDS011;6863;48.402;9.994;2022-07-05T13:45:48;1.50;;;1.40;;
13584;SDS011;6863;48.402;9.994;2022-07-05T13:48:13;1.65;;;1.55;;
13584;SDS011;6863;48.402;9.994;2022-07-05T13:50:39;1.73;;;1.63;;
13584;SDS011;6863;48.402;9.994;2022-07-05T13:53:05;1.25;;;1.20;;
13584;SDS011;6863;48.402;9.994;2022-07-05T13:55:30;1.90;;;1.65;;
13584;SDS011;6863;48.402;9.994;2022-07-05T13:57:57;2.67;;;1.50;;
13584;SDS011;6863;48.402;9.994;2022-07-05T14:00:25;1.67;;;1.58;;
13584;SDS011;6863;48.402;9.994;2022-07-05T14:02:51;1.77;;;1.40;;
13584;SDS011;6863;48.402;9.994;2022-07-05T14:05:17;2.40;;;1.23;;
13584;SDS011;6863;48.402;9.994;2022-07-05T14:07:43;1.63;;;1.45;;
13584;SDS011;6863;48.402;9.994;2022-07-05T14:10:09;1.65;;;1.55;;
13584;SDS011;6863;48.402;9.994;2022-07-05T14:12:35;1.42;;;1.33;;
13584;SDS011;6863;48.402;9.994;2022-07-05T14:15:00;2.17;;;1.75;;
13584;SDS011;6863;48.402;9.994;2022-07-05T14:17:26;1.42;;;1.40;;
13584;SDS011;6863;48.402;9.994;2022-07-05T14:19:51;1.75;;;1.65;;
13584;SDS011;6863;48.402;9.994;2022-07-05T14:22:17;1.98;;;1.40;;
13584;SDS011;6863;48.402;9.994;2022-07-05T14:24:43;1.95;;;1.50;;
13584;SDS011;6863;48.402;9.994;2022-07-05T14:27:08;1.60;;;1.50;;
13584;SDS011;6863;48.402;9.994;2022-07-05T14:29:34;1.40;;;1.40;;
13584;SDS011;6863;48.402;9.994;2022-07-05T14:32:00;1.52;;;1.35;;
13584;SDS011;6863;48.402;9.994;2022-07-05T14:34:25;1.55;;;1.42;;
13584;SDS011;6863;48.402;9.994;2022-07-05T14:36:53;4.22;;;3.83;;
13584;SDS011;6863;48.402;9.994;2022-07-05T14:39:19;1.55;;;1.45;;
13584;SDS011;6863;48.402;9.994;2022-07-05T14:41:45;2.35;;;1.77;;
13584;SDS011;6863;48.402;9.994;2022-07-05T14:44:11;3.28;;;1.77;;
13584;SDS011;6863;48.402;9.994;2022-07-05T14:46:37;1.70;;;1.60;;
13584;SDS011;6863;48.402;9.994;2022-07-05T14:49:03;2.20;;;1.80;;
13584;SDS011;6863;48.402;9.994;2022-07-05T14:51:29;2.05;;;1.70;;
13584;SDS011;6863;48.402;9.994;2022-07-05T14:53:55;12.57;;;4.38;;
13584;SDS011;6863;48.402;9.994;2022-07-05T14:56:20;2.55;;;2.20;;
13584;SDS011;6863;48.402;9.994;2022-07-05T14:58:46;2.60;;;2.30;;
13584;SDS011;6863;48.402;9.994;2022-07-05T15:01:13;2.13;;;1.90;;
13584;SDS011;6863;48.402;9.994;2022-07-05T15:03:40;1.90;;;1.80;;
13584;SDS011;6863;48.402;9.994;2022-07-05T15:06:06;2.20;;;2.00;;
13584;SDS011;6863;48.402;9.994;2022-07-05T15:08:32;2.70;;;1.63;;
13584;SDS011;6863;48.402;9.994;2022-07-05T15:10:57;2.33;;;1.60;;
13584;SDS011;6863;48.402;9.994;2022-07-05T15:13:24;2.28;;;2.00;;
13584;SDS011;6863;48.402;9.994;2022-07-05T15:15:51;1.95;;;1.85;;
13584;SDS011;6863;48.402;9.994;2022-07-05T15:18:17;2.13;;;2.00;;
13584;SDS011;6863;48.402;9.994;2022-07-05T15:20:43;1.90;;;1.80;;
13584;SDS011;6863;48.402;9.994;2022-07-05T15:23:09;1.83;;;1.60;;
13584;SDS011;6863;48.402;9.994;2022-07-05T15:25:34;2.67;;;2.13;;
13584;SDS011;6863;48.402;9.994;2022-07-05T15:28:02;2.25;;;2.00;;
13584;SDS011;6863;48.402;9.994;2022-07-05T15:30:31;3.17;;;2.00;;